Time;durP1;ratioP1;P1;durP2;ratioP2;P2;SDS_P1;SDS_P2;PMS_P1;PMS_P2;Temp;Humidity;BMP_temperature;BMP_pressure;BME280_temperature;BME280_humidity;BME280_pressure;Samples;Min_cycle;Max_cycle;Signal;HPM_P1;HPM_P2
2022/07/04 00:02:06;;;;;;;9.18;2.47;;;;;;;22.99;50.68;100052.59;5045964;28;20263;-68
2022/07/04 00:04:31;;;;;;;6.35;2.60;;;;;;;23.29;49.93;100055.16;5054705;28;20033;-68
2022/07/04 00:06:57;;;;;;;5.97;2.28;;;;;;;23.39;49.61;100057.25;5055962;28;20323;-68
2022/07/04 00:09:22;;;;;;;5.65;2.53;;;;;;;23.35;49.88;100051.50;5054995;28;20029;-68
2022/07/04 00:11:48;;;;;;;4.38;2.50;;;;;;;23.27;49.36;100029.41;5055231;28;20036;-68
2022/07/04 00:14:13;;;;;;;3.78;2.42;;;;;;;23.58;49.45;100047.13;5056175;28;20314;-68
2022/07/04 00:16:38;;;;;;;6.43;2.83;;;;;;;23.64;49.11;100048.88;5054613;28;20037;-68
2022/07/04 00:19:04;;;;;;;8.00;2.70;;;;;;;23.64;49.27;100054.28;5054283;28;20032;-68
2022/07/04 00:21:29;;;;;;;7.00;2.70;;;;;;;23.62;48.92;100051.81;5056883;28;20225;-68
2022/07/04 00:23:55;;;;;;;8.45;2.95;;;;;;;23.71;48.19;100050.38;5058465;28;20071;-68
2022/07/04 00:26:20;;;;;;;8.40;3.20;;;;;;;23.68;49.18;100048.13;5059703;28;20040;-68
2022/07/04 00:28:46;;;;;;;9.32;2.85;;;;;;;23.63;49.54;100041.81;5058740;28;20091;-68
2022/07/04 00:31:12;;;;;;;6.60;2.42;;;;;;;23.53;50.68;100043.22;5059664;28;20029;-68
2022/07/04 00:33:37;;;;;;;6.25;3.00;;;;;;;23.43;50.95;100034.91;5057167;28;20365;-67
2022/07/04 00:36:03;;;;;;;12.55;3.00;;;;;;;23.47;51.50;100037.94;5058379;28;20035;-67
2022/07/04 00:38:29;;;;;;;7.30;3.35;;;;;;;23.53;50.31;100032.41;5058721;28;20045;-68
2022/07/04 00:40:54;;;;;;;7.93;3.65;;;;;;;23.52;50.33;100030.75;5059730;28;20036;-68
2022/07/04 00:43:24;;;;;;;5.82;2.78;;;;;;;23.58;51.03;100037.13;5058413;28;20043;-68
2022/07/04 00:45:50;;;;;;;6.65;2.72;;;;;;;23.53;51.47;100032.41;5058631;28;20032;-68
2022/07/04 00:48:16;;;;;;;11.15;2.67;;;;;;;23.40;51.63;100029.16;5062783;28;20048;-67
2022/07/04 00:50:44;;;;;;;6.15;2.88;;;;;;;23.28;52.26;100023.78;5063607;28;20056;-68
2022/07/04 00:53:10;;;;;;;7.53;3.20;;;;;;;23.26;50.91;100028.59;5060333;28;20028;-68
2022/07/04 00:55:37;;;;;;;9.13;3.13;;;;;;;23.25;51.02;100035.88;5061317;28;20318;-68
2022/07/04 00:58:03;;;;;;;6.35;2.90;;;;;;;23.29;51.05;100020.03;5059705;28;20212;-68
2022/07/04 01:00:29;;;;;;;10.40;3.33;;;;;;;23.37;50.85;100019.66;5061577;28;20056;-68
2022/07/04 01:02:55;;;;;;;6.78;2.90;;;;;;;23.35;50.85;100023.66;5063329;28;20334;-68
2022/07/04 01:05:20;;;;;;;8.80;2.80;;;;;;;23.23;51.26;100013.69;5061363;28;20041;-68
2022/07/04 01:07:46;;;;;;;7.00;2.90;;;;;;;23.02;52.28;100011.59;5063825;28;20350;-68
2022/07/04 01:10:12;;;;;;;11.57;2.97;;;;;;;22.97;52.41;100003.41;5062595;28;20037;-68
2022/07/04 01:12:37;;;;;;;3.97;2.95;;;;;;;22.79;52.72;100007.00;5060666;28;20083;-68
2022/07/04 01:15:04;;;;;;;7.28;2.83;;;;;;;22.90;52.43;100013.50;5057862;28;20263;-68
2022/07/04 01:17:30;;;;;;;11.05;3.67;;;;;;;22.95;52.42;100008.22;5056666;28;20041;-68
2022/07/04 01:19:55;;;;;;;6.40;2.97;;;;;;;22.93;52.54;100011.16;5063718;28;20078;-68
2022/07/04 01:22:22;;;;;;;10.05;3.55;;;;;;;22.82;52.44;100006.56;5063219;28;20491;-67
2022/07/04 01:24:48;;;;;;;10.20;4.45;;;;;;;22.88;52.01;100002.09;5058824;28;20040;-68
2022/07/04 01:27:14;;;;;;;12.05;4.00;;;;;;;22.91;51.73;100004.34;5042340;28;20368;-68
2022/07/04 01:29:40;;;;;;;18.48;4.38;;;;;;;22.97;51.63;99994.47;5058633;28;20315;-68
2022/07/04 01:32:08;;;;;;;19.02;5.47;;;;;;;22.92;51.47;99993.31;5058910;28;20027;-68
2022/07/04 01:34:34;;;;;;;14.80;5.18;;;;;;;22.88;52.07;99994.81;5059745;28;20115;-68
2022/07/04 01:37:00;;;;;;;12.68;5.32;;;;;;;22.92;51.63;99998.72;5058950;28;20049;-68
2022/07/04 01:39:27;;;;;;;13.35;4.82;;;;;;;22.87;52.13;99989.63;5059743;28;20078;-68
2022/07/04 01:41:52;;;;;;;11.25;5.18;;;;;;;22.86;52.13;99993.41;5060470;28;20071;-68
2022/07/04 01:44:18;;;;;;;9.93;4.65;;;;;;;22.82;51.69;99989.53;5061842;28;20036;-68
2022/07/04 01:46:43;;;;;;;6.90;4.53;;;;;;;22.77;52.06;99979.41;5062446;28;20085;-68
2022/07/04 01:49:09;;;;;;;11.27;4.70;;;;;;;22.86;51.68;99990.69;5058394;28;20044;-68
2022/07/04 01:51:34;;;;;;;8.60;4.72;;;;;;;22.90;51.60;99992.72;5058615;28;21053;-68
2022/07/04 01:54:00;;;;;;;9.80;4.45;;;;;;;22.94;52.21;99990.38;5059765;28;20537;-68
2022/07/04 01:56:26;;;;;;;11.95;5.13;;;;;;;22.91;51.90;99983.56;5060029;28;20071;-68
2022/07/04 01:58:51;;;;;;;12.82;4.72;;;;;;;22.76;52.48;99993.13;5043821;28;20314;-68
2022/07/04 02:01:29;;;;;;;13.65;5.20;;;;;;;22.56;52.93;99983.53;5059258;28;20037;-68
2022/07/04 02:04:00;;;;;;;10.70;4.68;;;;;;;22.60;53.67;99994.66;5059608;28;20033;-68
2022/07/04 02:06:25;;;;;;;12.55;4.72;;;;;;;22.66;53.77;99993.72;5058325;28;20467;-68
2022/07/04 02:14:19;;;;;;;10.95;3.95;;;;;;;22.66;53.08;99987.50;5055996;28;19922;-68
2022/07/04 02:16:45;;;;;;;7.13;3.90;;;;;;;22.61;53.02;99990.91;5061180;28;20036;-68
2022/07/04 02:19:10;;;;;;;11.20;4.00;;;;;;;22.63;52.97;99999.59;5062155;28;20033;-68
2022/07/04 02:21:36;;;;;;;8.07;4.18;;;;;;;22.65;53.28;99992.09;5058942;28;20358;-68
2022/07/04 02:24:01;;;;;;;11.25;3.90;;;;;;;22.69;53.28;100000.53;5059492;28;20064;-68
2022/07/04 02:26:27;;;;;;;7.78;3.67;;;;;;;22.67;52.63;100003.47;5040022;28;20027;-68
2022/07/04 02:28:53;;;;;;;9.00;3.75;;;;;;;22.53;52.97;100002.06;5058796;28;20037;-68
2022/07/04 02:31:18;;;;;;;7.65;3.70;;;;;;;22.49;53.12;99995.47;5057974;28;20032;-68
2022/07/04 02:33:44;;;;;;;8.80;3.70;;;;;;;22.52;53.07;100005.81;5058985;28;20041;-68
2022/07/04 02:36:09;;;;;;;8.95;4.05;;;;;;;22.48;52.86;100007.34;5057877;28;20033;-68
2022/07/04 02:38:35;;;;;;;10.82;3.60;;;;;;;22.44;52.53;100009.69;5058265;28;20421;-67
2022/07/04 02:41:00;;;;;;;9.13;3.63;;;;;;;22.44;52.75;100017.78;5058272;28;20063;-68
2022/07/04 02:43:25;;;;;;;13.02;3.88;;;;;;;22.33;52.83;100012.34;5059203;28;20059;-68
2022/07/04 02:45:51;;;;;;;7.50;3.67;;;;;;;22.23;53.35;100007.53;5060224;28;20025;-68
2022/07/04 02:48:16;;;;;;;7.85;3.58;;;;;;;22.31;52.83;100017.97;5058362;28;20025;-68
2022/07/04 02:50:42;;;;;;;6.88;3.60;;;;;;;22.23;52.70;100021.84;5057470;28;20328;-68
2022/07/04 02:53:07;;;;;;;4.97;3.60;;;;;;;22.24;53.94;100026.19;5057429;28;20021;-67
2022/07/04 02:55:33;;;;;;;9.38;3.85;;;;;;;22.17;54.37;100020.06;5058838;28;20044;-68
2022/07/04 02:57:58;;;;;;;8.43;5.32;;;;;;;22.28;54.44;100027.38;5058421;28;20360;-68
2022/07/04 03:00:24;;;;;;;9.27;4.15;;;;;;;22.33;54.91;100025.84;5057283;28;20051;-68
2022/07/04 03:02:50;;;;;;;6.57;3.85;;;;;;;22.34;55.44;100031.00;5057528;28;20029;-68
2022/07/04 03:05:15;;;;;;;11.38;3.47;;;;;;;22.37;55.36;100027.03;5057337;28;20059;-68
2022/07/04 03:07:41;;;;;;;8.82;4.18;;;;;;;22.40;55.45;100021.16;5057401;28;20321;-68
2022/07/04 03:10:07;;;;;;;12.25;6.07;;;;;;;22.41;55.67;100022.81;5058414;28;20061;-68
2022/07/04 03:12:32;;;;;;;58.45;31.60;;;;;;;22.43;55.47;100024.22;5057221;28;20327;-68
2022/07/04 03:14:59;;;;;;;99.68;51.67;;;;;;;22.48;56.00;100031.63;5057632;28;20040;-68
2022/07/04 03:17:25;;;;;;;45.97;24.95;;;;;;;22.29;56.75;100042.50;5057974;28;20203;-68
2022/07/04 03:19:51;;;;;;;35.78;17.33;;;;;;;22.38;56.88;100039.47;5059669;28;20045;-68
2022/07/04 03:22:16;;;;;;;30.20;15.07;;;;;;;22.44;56.76;100046.63;5060847;28;20110;-67
2022/07/04 03:24:42;;;;;;;28.05;19.25;;;;;;;22.49;56.39;100038.66;5056867;28;20033;-67
2022/07/04 03:27:07;;;;;;;24.85;12.05;;;;;;;22.38;56.20;100040.28;5057763;28;20059;-68
2022/07/04 03:29:33;;;;;;;28.40;20.15;;;;;;;22.33;56.91;100029.38;5058004;28;20100;-68
2022/07/04 03:31:59;;;;;;;25.40;12.43;;;;;;;22.25;57.89;100038.63;5057624;28;20036;-68
2022/07/04 03:34:24;;;;;;;18.60;7.47;;;;;;;22.43;57.71;100039.59;5057043;28;20044;-68
2022/07/04 03:36:49;;;;;;;17.88;5.93;;;;;;;22.57;57.18;100036.44;5058705;28;20028;-68
2022/07/04 03:39:15;;;;;;;10.45;4.75;;;;;;;22.59;56.72;100025.41;5060533;28;20037;-68
2022/07/04 03:41:41;;;;;;;9.13;3.92;;;;;;;22.63;56.32;100029.28;5058360;28;20036;-68
2022/07/04 03:44:06;;;;;;;11.45;4.13;;;;;;;22.67;55.79;100027.75;5055315;28;20025;-68
2022/07/04 03:46:32;;;;;;;13.98;4.45;;;;;;;22.67;55.96;100027.75;5057664;28;20226;-68
2022/07/04 03:48:57;;;;;;;9.45;4.43;;;;;;;22.78;55.54;100026.94;5060609;28;20037;-68
2022/07/04 03:51:23;;;;;;;17.23;4.68;;;;;;;22.88;55.26;100029.09;5058528;28;20028;-68
2022/07/04 03:53:48;;;;;;;7.25;4.43;;;;;;;22.88;55.39;100027.22;5057714;28;20043;-68
2022/07/04 03:56:14;;;;;;;14.27;5.65;;;;;;;22.79;55.47;100022.38;5058356;28;20040;-68
2022/07/04 03:59:17;;;;;;;14.20;5.75;;;;;;;22.96;54.89;100020.66;5241873;22;20053;-73
2022/07/04 04:01:42;;;;;;;10.15;5.30;;;;;;;23.16;54.25;100023.81;5123672;28;20042;-72
2022/07/04 04:06:52;;;;;;;16.55;5.25;;;;;;;23.22;53.93;100020.16;5106036;28;20071;-73
2022/07/04 04:09:19;;;;;;;12.88;4.78;;;;;;;23.27;54.03;100029.41;5120886;28;20048;-73
2022/07/04 04:11:45;;;;;;;20.35;5.63;;;;;;;23.24;54.51;100030.72;5106088;28;20055;-73
2022/07/04 04:14:12;;;;;;;25.85;14.75;;;;;;;23.32;55.08;100022.25;5105725;28;20325;-73
2022/07/04 04:16:38;;;;;;;29.15;16.83;;;;;;;23.28;55.19;100022.97;5115318;28;20213;-73
2022/07/04 04:19:03;;;;;;;22.60;10.18;;;;;;;23.14;55.63;100025.91;5111128;28;20040;-73
2022/07/04 04:21:28;;;;;;;13.55;7.97;;;;;;;23.34;55.22;100025.53;5105776;28;20027;-73
2022/07/04 04:23:54;;;;;;;16.13;5.35;;;;;;;23.50;54.39;100034.78;5105904;28;20063;-73
2022/07/04 04:26:19;;;;;;;12.73;5.00;;;;;;;23.46;54.94;100031.72;5087638;28;20030;-73
2022/07/04 04:28:45;;;;;;;9.95;5.03;;;;;;;23.50;55.00;100037.47;5105463;28;20077;-73
2022/07/04 04:31:10;;;;;;;11.25;4.63;;;;;;;23.26;55.45;100034.00;5087659;28;20022;-73
2022/07/04 04:33:36;;;;;;;14.55;4.85;;;;;;;23.43;55.33;100031.38;5115007;28;20035;-73
2022/07/04 04:36:02;;;;;;;12.15;4.90;;;;;;;23.56;54.05;100037.38;5111148;28;20047;-73
2022/07/04 04:38:27;;;;;;;14.38;5.72;;;;;;;23.66;53.96;100039.44;5105867;28;20040;-73
2022/07/04 04:40:53;;;;;;;12.80;4.68;;;;;;;24.01;52.71;100042.03;5105582;28;20039;-73
2022/07/04 04:43:18;;;;;;;10.65;4.55;;;;;;;24.22;52.31;100042.41;5105699;28;20028;-73
2022/07/04 04:45:44;;;;;;;11.15;4.90;;;;;;;24.42;52.14;100043.59;5105433;28;20020;-73
2022/07/04 04:48:09;;;;;;;8.65;3.65;;;;;;;24.08;52.45;100044.59;5105678;28;20032;-73
2022/07/04 04:50:35;;;;;;;7.93;3.88;;;;;;;24.08;53.03;100044.59;5105240;28;20032;-74
2022/07/04 04:53:02;;;;;;;10.93;4.00;;;;;;;24.25;51.24;100031.91;5087129;28;20032;-73
2022/07/04 04:55:27;;;;;;;24.65;3.75;;;;;;;23.99;51.12;100033.34;5101949;28;20043;-73
2022/07/04 04:57:53;;;;;;;9.13;3.65;;;;;;;24.26;50.95;100033.56;5101803;28;20036;-73
2022/07/04 05:00:19;;;;;;;6.97;3.05;;;;;;;24.41;49.95;100041.97;5100950;28;20040;-73
2022/07/04 05:02:44;;;;;;;8.00;3.00;;;;;;;24.76;48.83;100030.88;5082918;28;20297;-73
2022/07/04 05:05:10;;;;;;;11.65;3.22;;;;;;;24.95;47.81;100033.31;5102648;28;20229;-73
2022/07/04 05:07:35;;;;;;;8.88;3.25;;;;;;;25.33;46.84;100037.94;5101366;28;20040;-73
2022/07/04 05:10:02;;;;;;;10.00;3.15;;;;;;;25.41;45.96;100027.47;5103608;28;20229;-73
2022/07/04 05:12:28;;;;;;;12.65;3.00;;;;;;;25.75;45.30;100032.78;5103858;28;20648;-73
2022/07/04 05:14:54;;;;;;;7.22;3.30;;;;;;;25.21;45.90;100037.25;5103373;28;20028;-73
2022/07/04 05:17:20;;;;;;;14.63;2.90;;;;;;;25.34;46.16;100034.16;5104206;28;20024;-73
2022/07/04 05:19:45;;;;;;;6.97;2.92;;;;;;;25.37;45.80;100025.53;5101671;28;20077;-73
2022/07/04 05:22:11;;;;;;;8.38;2.92;;;;;;;25.52;45.87;100031.13;5102528;28;20034;-73
2022/07/04 05:24:40;;;;;;;14.20;3.17;;;;;;;25.91;43.65;100015.59;5103256;28;20325;-73
2022/07/04 05:27:07;;;;;;;6.78;2.72;;;;;;;25.99;42.55;100030.59;5101411;28;20322;-73
2022/07/04 05:29:32;;;;;;;8.23;2.78;;;;;;;26.53;42.48;100033.31;5278504;22;20060;-72
2022/07/04 05:31:58;;;;;;;6.60;2.70;;;;;;;26.73;42.07;100031.56;5125209;28;20331;-73
2022/07/04 05:34:23;;;;;;;9.55;2.80;;;;;;;27.21;41.18;100031.63;5125786;27;20042;-72
2022/07/04 05:36:49;;;;;;;4.60;2.80;;;;;;;27.62;40.05;100022.56;5125342;27;20091;-73
2022/07/04 05:39:15;;;;;;;6.63;2.88;;;;;;;27.86;38.77;100031.06;5123856;28;20043;-73
2022/07/04 05:41:40;;;;;;;14.90;3.22;;;;;;;27.94;37.94;100032.44;5123284;28;20316;-73
2022/07/04 05:44:06;;;;;;;9.27;2.80;;;;;;;27.86;37.70;100014.75;5125459;27;20336;-73
2022/07/04 05:46:31;;;;;;;6.82;2.55;;;;;;;27.56;38.18;100026.31;5125517;27;20043;-73
2022/07/04 05:48:57;;;;;;;4.43;2.60;;;;;;;27.06;39.24;100029.63;5125032;27;20032;-72
2022/07/04 05:51:22;;;;;;;11.15;2.92;;;;;;;27.01;39.22;100019.53;5124516;27;20408;-73
2022/07/04 05:53:48;;;;;;;4.80;2.92;;;;;;;27.25;39.53;100025.38;5124861;27;20043;-73
2022/07/04 05:56:14;;;;;;;11.70;2.95;;;;;;;27.47;39.50;100022.50;5107233;27;20019;-72
2022/07/04 05:58:40;;;;;;;7.53;3.00;;;;;;;28.03;38.15;100025.38;5125236;27;20035;-73
2022/07/04 06:01:06;;;;;;;7.85;2.65;;;;;;;28.43;37.10;100021.09;5125492;27;20035;-73
2022/07/04 06:03:31;;;;;;;4.78;2.75;;;;;;;28.38;35.47;100021.09;5124479;27;20054;-73
2022/07/04 06:05:57;;;;;;;9.18;2.67;;;;;;;28.28;35.79;100024.66;5123493;27;20039;-73
2022/07/04 06:08:23;;;;;;;5.07;2.53;;;;;;;28.43;34.97;100013.75;5128271;27;20346;-73
2022/07/04 06:10:49;;;;;;;12.60;2.40;;;;;;;28.26;35.01;100015.94;5124617;27;20035;-72
2022/07/04 06:13:14;;;;;;;7.50;2.63;;;;;;;28.64;35.52;100009.09;5124485;27;20202;-72
2022/07/04 06:15:40;;;;;;;5.88;2.67;;;;;;;28.77;34.72;100007.72;5125912;27;20356;-72
2022/07/04 06:18:05;;;;;;;5.47;2.58;;;;;;;28.90;34.76;100009.91;5124557;27;20395;-73
2022/07/04 06:20:31;;;;;;;9.15;2.70;;;;;;;29.18;34.26;100003.03;5124711;27;20023;-73
2022/07/04 06:22:56;;;;;;;6.68;2.80;;;;;;;29.44;34.40;99999.13;5124533;27;20023;-73
2022/07/04 06:25:22;;;;;;;6.82;2.53;;;;;;;29.50;33.62;99994.47;5123313;27;20027;-73
2022/07/04 06:27:49;;;;;;;5.93;2.67;;;;;;;29.64;34.05;99995.47;5124749;27;20251;-72
2022/07/04 06:30:16;;;;;;;6.35;2.42;;;;;;;29.94;33.41;99993.66;5105396;28;20043;-72
2022/07/04 06:32:47;;;;;;;4.30;2.47;;;;;;;30.04;33.36;99988.97;5128005;27;20028;-73
2022/07/04 06:37:58;;;;;;;8.27;2.47;;;;;;;30.27;33.47;99978.44;5124074;27;20077;-73
2022/07/04 06:40:23;;;;;;;14.45;3.13;;;;;;;30.34;33.13;99992.56;5124855;27;20039;-72
2022/07/04 06:42:50;;;;;;;8.57;2.70;;;;;;;30.48;32.79;99977.16;5124386;27;20343;-73
2022/07/04 06:45:15;;;;;;;9.18;2.50;;;;;;;30.13;32.99;99992.72;5123352;27;20046;-73
2022/07/04 06:47:41;;;;;;;10.48;2.40;;;;;;;30.08;33.18;99991.94;5123691;27;20031;-73
2022/07/04 06:50:07;;;;;;;4.47;2.17;;;;;;;30.30;33.00;99983.31;5124574;27;20038;-73
2022/07/04 06:52:34;;;;;;;9.18;2.50;;;;;;;30.46;33.67;99977.44;5123155;27;20102;-73
2022/07/04 06:54:59;;;;;;;7.57;3.05;;;;;;;30.81;32.72;99954.41;5123261;27;20027;-72
2022/07/04 06:57:25;;;;;;;9.25;2.83;;;;;;;30.92;32.78;99979.72;5119098;27;20034;-72
2022/07/04 06:59:50;;;;;;;10.05;2.90;;;;;;;31.05;32.37;99945.38;5122447;27;20035;-73
2022/07/04 07:02:16;;;;;;;6.55;3.15;;;;;;;31.00;31.88;99968.13;5122678;27;20035;-73
2022/07/04 07:04:42;;;;;;;4.25;3.10;;;;;;;31.15;31.63;99966.34;5126559;27;20035;-73
2022/07/04 07:07:08;;;;;;;8.65;2.80;;;;;;;30.99;32.01;99962.97;5122755;27;20027;-73
2022/07/04 07:09:34;;;;;;;5.75;2.17;;;;;;;31.26;30.90;99968.69;5123838;27;20031;-73
2022/07/04 07:11:59;;;;;;;6.03;2.67;;;;;;;30.99;31.13;99958.31;5104714;27;20027;-73
2022/07/04 07:14:25;;;;;;;7.13;2.63;;;;;;;30.55;31.95;99953.03;5104699;28;20232;-73
2022/07/04 07:16:50;;;;;;;4.32;2.97;;;;;;;31.31;30.74;99959.63;5125078;27;20060;-73
2022/07/04 07:19:17;;;;;;;4.40;2.50;;;;;;;31.58;29.94;99961.69;5121889;28;20035;-73
2022/07/04 07:21:42;;;;;;;11.35;2.67;;;;;;;31.78;30.22;99950.47;5123425;27;20045;-73
2022/07/04 07:24:08;;;;;;;9.93;3.03;;;;;;;32.14;30.11;99952.63;5132247;27;20035;-73
2022/07/04 07:26:33;;;;;;;3.60;2.05;;;;;;;32.07;28.67;99951.09;5142088;27;20011;-73
2022/07/04 07:28:58;;;;;;;7.35;2.53;;;;;;;31.96;28.57;99949.63;5113354;27;20041;-73
2022/07/04 07:31:24;;;;;;;5.47;2.20;;;;;;;32.10;28.59;99951.63;5123008;27;20080;-73
2022/07/04 07:33:49;;;;;;;7.82;2.33;;;;;;;32.11;29.22;99955.97;5123094;27;20047;-73
2022/07/04 07:36:15;;;;;;;8.70;2.63;;;;;;;31.81;30.27;99935.38;5123322;27;20020;-73
2022/07/04 07:38:40;;;;;;;7.32;2.45;;;;;;;32.00;29.88;99936.97;5123048;28;20032;-72
2022/07/04 07:41:09;;;;;;;7.63;2.40;;;;;;;31.88;31.14;99942.09;5123333;27;20029;-73
2022/07/04 07:43:36;;;;;;;6.60;2.67;;;;;;;32.00;29.98;99926.03;5123447;27;20736;-72
2022/07/04 07:46:05;;;;;;;8.80;2.63;;;;;;;31.80;30.70;99939.22;5122688;28;20024;-73
2022/07/04 07:48:30;;;;;;;8.18;2.78;;;;;;;32.16;29.68;99942.19;5122624;27;20062;-73
2022/07/04 07:50:56;;;;;;;10.70;2.50;;;;;;;32.53;29.63;99933.09;5122623;28;20027;-73
2022/07/04 07:53:21;;;;;;;5.80;2.63;;;;;;;32.70;28.96;99931.38;5121091;28;20103;-73
2022/07/04 07:55:47;;;;;;;5.80;2.70;;;;;;;32.47;29.34;99931.56;5121720;28;20032;-73
2022/07/04 07:58:12;;;;;;;9.55;2.50;;;;;;;32.85;28.91;99927.56;5123024;28;20046;-73
2022/07/04 08:00:38;;;;;;;5.45;2.47;;;;;;;32.78;29.27;99929.88;5122529;28;20037;-73
2022/07/04 08:05:48;;;;;;;4.82;2.65;;;;;;;32.55;29.20;99933.59;5121198;28;20393;-73
2022/07/04 08:08:13;;;;;;;41.53;19.77;;;;;;;32.75;27.73;99922.25;5122529;28;20027;-73
2022/07/04 08:10:39;;;;;;;26.02;10.75;;;;;;;32.70;27.43;99912.19;5106407;28;20349;-73
2022/07/04 08:13:05;;;;;;;6.05;2.90;;;;;;;33.03;27.73;99911.28;5121680;28;20058;-73
2022/07/04 08:15:31;;;;;;;8.00;2.40;;;;;;;33.44;28.09;99912.06;5123239;28;20050;-73
2022/07/04 08:17:57;;;;;;;9.00;2.70;;;;;;;33.43;27.28;99913.19;5125794;28;20437;-73
2022/07/04 08:20:22;;;;;;;6.53;2.38;;;;;;;33.62;27.65;99910.28;5121899;28;20031;-73
2022/07/04 08:22:48;;;;;;;9.52;2.80;;;;;;;33.87;26.28;99911.63;5122655;28;20255;-73
2022/07/04 08:25:16;;;;;;;4.72;2.03;;;;;;;33.95;26.21;99914.44;5121428;28;20034;-73
2022/07/04 08:27:43;;;;;;;4.63;2.42;;;;;;;34.08;25.76;99907.25;5122862;28;20042;-73
2022/07/04 08:30:08;;;;;;;6.90;2.28;;;;;;;34.13;25.47;99909.84;5123401;28;20099;-73
2022/07/04 08:32:34;;;;;;;4.28;2.15;;;;;;;34.19;25.62;99903.09;5122969;28;20043;-73
2022/07/04 08:35:01;;;;;;;6.28;2.50;;;;;;;34.04;26.13;99894.44;5123439;28;20316;-73
2022/07/04 08:37:26;;;;;;;4.25;2.70;;;;;;;34.28;26.45;99901.22;5123298;28;20039;-73
2022/07/04 08:39:52;;;;;;;8.57;2.40;;;;;;;34.42;25.79;99903.13;5123084;28;20255;-73
2022/07/04 08:42:19;;;;;;;4.78;2.65;;;;;;;34.40;26.38;99897.94;5126545;27;20023;-73
2022/07/04 08:44:49;;;;;;;7.65;2.55;;;;;;;34.63;25.41;99898.66;5131348;27;20101;-73
2022/07/04 08:47:19;;;;;;;4.38;2.75;;;;;;;33.87;26.03;99900.63;5108915;27;20065;-73
2022/07/04 08:50:03;;;;;;;3.60;2.20;;;;;;;33.69;26.66;99876.91;5108765;27;20050;-73
2022/07/04 08:52:36;;;;;;;8.02;2.60;;;;;;;34.39;26.48;99899.06;5129353;27;20035;-73
2022/07/04 09:00:34;;;;;;;8.40;2.65;;;;;;;35.30;24.65;99892.03;5125495;27;20096;-73
2022/07/04 09:03:02;;;;;;;6.35;2.55;;;;;;;35.30;23.33;99886.53;5129448;27;20038;-73
2022/07/04 09:05:28;;;;;;;4.10;2.00;;;;;;;35.54;23.22;99889.69;5125749;27;20027;-73
2022/07/04 09:07:54;;;;;;;7.20;2.30;;;;;;;35.49;22.53;99890.66;5128697;27;20036;-73
2022/07/04 09:10:21;;;;;;;6.38;2.50;;;;;;;35.32;21.64;99885.13;5129573;27;20413;-73
2022/07/04 09:12:46;;;;;;;5.22;2.22;;;;;;;35.43;22.93;99886.44;5127602;27;20051;-73
2022/07/04 09:15:12;;;;;;;3.38;1.92;;;;;;;35.58;21.67;99887.91;5129207;27;20319;-73
2022/07/04 09:17:37;;;;;;;6.38;2.13;;;;;;;35.64;21.25;99885.78;5124559;27;20365;-73
2022/07/04 09:20:13;;;;;;;3.72;2.20;;;;;;;35.47;20.97;99879.16;5126216;27;20313;-73
2022/07/04 09:22:40;;;;;;;3.42;2.45;;;;;;;35.30;21.87;99878.28;5127094;27;20067;-73
2022/07/04 09:25:06;;;;;;;6.82;2.10;;;;;;;35.35;21.56;99873.44;5110452;27;20031;-73
2022/07/04 09:27:34;;;;;;;4.97;2.70;;;;;;;35.34;21.63;99874.59;5126697;27;20330;-72
2022/07/04 09:30:00;;;;;;;4.60;2.22;;;;;;;35.26;23.47;99877.31;5126354;27;20058;-73
2022/07/04 09:32:38;;;;;;;6.13;2.50;;;;;;;34.75;23.39;99871.38;5125759;27;20035;-72
2022/07/04 09:35:05;;;;;;;5.15;2.22;;;;;;;34.28;23.01;99873.72;5127212;27;20039;-73
2022/07/04 09:37:46;;;;;;;4.38;2.33;;;;;;;34.03;23.07;99865.34;5128454;27;20042;-73
2022/07/04 09:40:26;;;;;;;4.15;2.67;;;;;;;34.02;23.94;99866.47;5127476;27;20019;-73
2022/07/04 09:42:53;;;;;;;5.28;2.70;;;;;;;33.73;24.38;99872.41;5124946;27;20040;-73
2022/07/04 09:45:21;;;;;;;9.63;2.50;;;;;;;33.70;26.77;99857.34;5126115;27;20035;-73
2022/07/04 09:47:47;;;;;;;4.03;2.45;;;;;;;33.54;24.53;99859.66;5127984;27;20356;-73
2022/07/04 09:50:20;;;;;;;4.80;2.80;;;;;;;33.36;24.93;99862.59;5124836;27;20076;-73
2022/07/04 09:52:47;;;;;;;5.57;2.45;;;;;;;33.32;26.54;99867.88;5125878;27;20054;-73
2022/07/04 09:55:20;;;;;;;3.50;2.35;;;;;;;32.99;28.85;99869.94;5128420;27;20031;-73
2022/07/04 09:57:45;;;;;;;5.10;2.72;;;;;;;32.79;26.39;99856.66;5123516;27;20352;-73
2022/07/04 10:00:20;;;;;;;3.95;2.50;;;;;;;32.99;26.23;99853.47;5123042;27;20028;-73
2022/07/04 10:02:46;;;;;;;5.88;2.50;;;;;;;32.94;26.72;99859.88;5127382;27;20039;-73
2022/07/04 10:05:11;;;;;;;4.63;2.58;;;;;;;32.65;26.65;99864.88;5127177;27;20036;-73
2022/07/04 10:07:43;;;;;;;6.38;2.70;;;;;;;32.42;28.73;99855.72;5107389;27;20024;-73
2022/07/04 10:10:33;;;;;;;6.00;2.45;;;;;;;32.74;27.41;99857.56;5128314;27;20087;-73
2022/07/04 10:13:07;;;;;;;5.43;3.17;;;;;;;32.78;26.15;99844.06;5125187;27;20114;-73
2022/07/04 10:15:39;;;;;;;8.80;2.70;;;;;;;32.81;28.59;99844.28;5125708;27;20055;-72
2022/07/04 10:18:06;;;;;;;6.00;2.45;;;;;;;32.95;26.32;99861.50;5126046;27;20195;-72
2022/07/04 10:20:32;;;;;;;4.15;2.67;;;;;;;33.02;26.43;99852.88;5107395;27;20031;-73
2022/07/04 10:23:00;;;;;;;7.40;2.47;;;;;;;32.92;26.06;99845.69;5128243;27;20098;-73
2022/07/04 10:25:26;;;;;;;8.15;2.72;;;;;;;33.16;27.01;99841.84;5137942;27;20512;-73
2022/07/04 10:27:51;;;;;;;7.32;2.50;;;;;;;33.05;26.30;99843.22;5138380;27;20031;-73
2022/07/04 10:30:23;;;;;;;4.78;2.45;;;;;;;32.62;26.42;99846.28;5141270;27;20068;-73
2022/07/04 10:32:50;;;;;;;5.13;2.75;;;;;;;32.56;27.22;99837.34;5124763;27;20216;-73
2022/07/04 10:35:16;;;;;;;4.60;2.58;;;;;;;32.35;29.68;99836.13;5143202;27;20047;-73
2022/07/04 10:38:02;;;;;;;4.75;2.53;;;;;;;32.46;26.63;99831.28;5142967;27;20292;-73
2022/07/04 10:40:51;;;;;;;3.97;2.58;;;;;;;32.57;26.31;99833.50;5141838;27;20354;-73
2022/07/04 10:43:34;;;;;;;5.18;2.60;;;;;;;32.68;26.38;99832.16;5134905;27;20034;-73
2022/07/04 10:46:02;;;;;;;3.78;2.47;;;;;;;32.92;27.55;99831.16;5139914;27;20321;-73
2022/07/04 10:48:29;;;;;;;6.10;2.60;;;;;;;32.74;27.31;99824.66;5139701;27;20027;-74
2022/07/04 10:51:15;;;;;;;6.18;2.75;;;;;;;32.62;27.00;99825.16;5141229;27;20031;-73
2022/07/04 10:54:06;;;;;;;3.28;2.42;;;;;;;32.17;27.72;99823.28;5142605;27;20027;-73
2022/07/04 10:56:36;;;;;;;4.32;2.70;;;;;;;32.22;27.14;99820.44;5134526;27;20039;-73
2022/07/04 10:59:08;;;;;;;8.18;2.80;;;;;;;32.28;27.50;99806.41;5137598;27;20068;-73
2022/07/04 11:01:33;;;;;;;15.20;2.72;;;;;;;32.54;28.19;99814.91;5141805;27;20038;-73
2022/07/04 11:03:59;;;;;;;4.38;2.90;;;;;;;32.53;27.30;99815.22;5142347;27;20031;-73
2022/07/04 11:06:33;;;;;;;6.07;2.83;;;;;;;32.60;27.09;99818.38;5142010;27;20035;-72
2022/07/04 11:09:18;;;;;;;4.80;2.72;;;;;;;32.64;27.25;99814.72;5142461;27;20061;-73
2022/07/04 11:11:51;;;;;;;4.38;2.80;;;;;;;32.75;26.78;99814.50;5141578;27;20082;-73
2022/07/04 11:14:47;;;;;;;9.90;2.53;;;;;;;32.56;26.95;99804.47;5141842;27;20039;-72
2022/07/04 11:17:33;;;;;;;6.00;3.08;;;;;;;32.74;27.41;99804.63;5134526;27;20031;-73
2022/07/04 11:20:00;;;;;;;5.28;2.47;;;;;;;32.25;27.95;99806.16;5141866;27;20035;-72
2022/07/04 11:22:26;;;;;;;5.15;2.33;;;;;;;32.03;27.33;99793.94;5142973;27;20042;-73
2022/07/04 11:24:53;;;;;;;4.20;2.67;;;;;;;32.24;27.33;99793.59;5142352;27;20031;-72
2022/07/04 11:27:22;;;;;;;6.60;2.88;;;;;;;32.17;28.60;99787.66;5142459;27;20034;-73
2022/07/04 11:29:51;;;;;;;4.95;2.40;;;;;;;32.21;25.23;99805.94;5142210;27;20057;-72
2022/07/04 11:32:17;;;;;;;6.03;2.35;;;;;;;32.19;25.80;99794.47;5142645;27;20050;-73
2022/07/04 11:34:42;;;;;;;4.30;2.67;;;;;;;32.45;26.02;99803.06;5142419;27;20035;-73
2022/07/04 11:37:08;;;;;;;7.57;2.90;;;;;;;32.54;25.81;99793.00;5142748;27;20064;-73
2022/07/04 11:39:33;;;;;;;3.10;2.28;;;;;;;32.59;24.81;99792.06;5142496;27;20035;-73
2022/07/04 11:45:05;;;;;;;6.55;2.40;;;;;;;32.27;26.40;99782.88;5079031;28;20191;-73
2022/07/04 11:47:41;;;;;;;4.63;2.05;;;;;;;32.21;24.57;99786.75;5131012;28;20042;-73
2022/07/04 11:50:16;;;;;;;5.95;2.40;;;;;;;32.28;25.11;99783.69;5142551;27;20746;-73